createdAt,value
2017-09-29T00:02:03.443Z,64.5
2017-09-29T00:07:03.376Z,64.6
2017-09-29T00:12:03.323Z,64.5
2017-09-29T00:17:03.920Z,64.5
2017-09-29T00:22:03.705Z,64.3
2017-09-29T00:27:03.340Z,64.3
2017-09-29T00:32:03.091Z,64.3
2017-09-29T00:37:03.818Z,64.3
2017-09-29T00:42:03.525Z,64.5
2017-09-29T00:47:03.403Z,64.5
2017-09-29T00:52:03.024Z,64.2
2017-09-29T00:57:03.668Z,64.5
2017-09-29T01:02:03.513Z,64.4
2017-09-29T01:07:03.307Z,64.4
2017-09-29T01:12:03.202Z,64.2
2017-09-29T01:17:03.881Z,64.2
2017-09-29T01:22:03.622Z,64.2
2017-09-29T01:27:03.277Z,64.1
2017-09-29T01:32:03.931Z,64.1
2017-09-29T01:37:03.746Z,64.1
2017-09-29T01:42:03.375Z,64.0
2017-09-29T01:47:03.380Z,64.2
2017-09-29T01:52:03.130Z,64.1
2017-09-29T01:57:03.815Z,64.2
2017-09-29T02:02:03.549Z,64.1
2017-09-29T02:07:03.522Z,64.2
2017-09-29T02:12:03.423Z,64.1
2017-09-29T02:17:03.319Z,63.8
2017-09-29T02:22:03.192Z,63.8
2017-09-29T02:27:03.954Z,64.3
2017-09-29T02:32:03.670Z,64.3
2017-09-29T02:37:03.080Z,64.2
2017-09-29T02:42:03.328Z,64.1
2017-09-29T02:47:03.702Z,64.1
2017-09-29T02:52:03.040Z,64.4
2017-09-29T02:57:03.343Z,64.4
2017-09-29T03:02:03.637Z,64.0
2017-09-29T03:07:03.241Z,64.0
2017-09-29T03:12:03.598Z,64.2
2017-09-29T03:17:03.918Z,64.3
2017-09-29T03:22:03.312Z,64.4
2017-09-29T03:27:03.553Z,64.3
2017-09-29T03:32:03.796Z,64.5
2017-09-29T03:37:03.189Z,64.2
2017-09-29T03:42:03.344Z,64.0
2017-09-29T03:47:03.658Z,64.2
2017-09-29T03:52:03.000Z,64.0
2017-09-29T03:57:03.389Z,64.1
2017-09-29T04:02:03.628Z,64.3
2017-09-29T04:07:03.050Z,64.2
2017-09-29T04:12:03.395Z,64.2
2017-09-29T04:17:03.704Z,64.2
2017-09-29T04:22:03.125Z,64.4
2017-09-29T04:27:03.406Z,64.7
2017-09-29T04:32:03.742Z,64.5
2017-09-29T04:37:03.044Z,64.6
2017-09-29T04:42:03.342Z,64.7
2017-09-29T04:47:03.953Z,64.7
2017-09-29T04:52:02.983Z,64.8
2017-09-29T04:57:03.304Z,64.6
2017-09-29T05:02:22.557Z,64.8
2017-09-29T05:07:03.273Z,64.8
2017-09-29T05:12:03.894Z,64.6
2017-09-29T05:17:26.122Z,64.6
2017-09-29T05:22:03.075Z,64.6
2017-09-29T05:27:03.249Z,64.6
2017-09-29T05:32:25.964Z,64.6
2017-09-29T05:37:03.433Z,64.6
2017-09-29T05:42:03.971Z,64.6
2017-09-29T05:47:28.991Z,64.6
2017-09-29T05:52:03.390Z,64.7
2017-09-29T05:57:03.856Z,64.7
2017-09-29T06:02:27.280Z,64.6
2017-09-29T06:07:03.654Z,64.9
2017-09-29T06:12:03.303Z,64.8
2017-09-29T06:17:24.083Z,64.7
2017-09-29T06:22:03.889Z,64.8
2017-09-29T06:27:03.350Z,64.7
2017-09-29T06:32:27.711Z,64.6
2017-09-29T06:37:03.838Z,64.9
2017-09-29T06:42:03.249Z,64.8
2017-09-29T06:47:28.460Z,64.6
2017-09-29T06:52:03.729Z,64.5
2017-09-29T06:57:03.100Z,64.6
2017-09-29T07:02:23.682Z,64.7
2017-09-29T07:07:03.679Z,64.7
2017-09-29T07:12:03.294Z,64.5
2017-09-29T07:17:28.831Z,64.4
2017-09-29T07:22:03.828Z,64.3
2017-09-29T07:27:03.273Z,64.3
2017-09-29T07:32:32.926Z,64.1
2017-09-29T07:37:03.094Z,64.1
2017-09-29T07:42:03.542Z,64.2
2017-09-29T07:47:21.803Z,63.8
2017-09-29T07:52:03.124Z,63.8
2017-09-29T07:57:03.053Z,63.3
2017-09-29T08:02:23.629Z,63.0
2017-09-29T08:07:03.711Z,62.9
2017-09-29T08:12:03.296Z,62.6
2017-09-29T08:17:29.468Z,62.7
2017-09-29T08:22:03.825Z,62.6
2017-09-29T08:27:03.274Z,62.5
2017-09-29T08:32:27.964Z,62.3
2017-09-29T08:37:03.341Z,62.5
2017-09-29T08:42:03.771Z,62.4
2017-09-29T08:47:28.215Z,62.7
2017-09-29T08:52:03.384Z,63.0
2017-09-29T08:57:03.473Z,62.7
2017-09-29T09:02:25.669Z,63.0
2017-09-29T09:07:03.141Z,62.9
2017-09-29T09:12:03.850Z,62.6
2017-09-29T09:17:28.546Z,63.0
2017-09-29T09:22:03.783Z,63.2
2017-09-29T09:27:03.247Z,63.2
2017-09-29T09:32:23.720Z,63.2
2017-09-29T09:37:03.347Z,63.7
2017-09-29T09:42:03.756Z,63.7
2017-09-29T09:47:25.512Z,63.8
2017-09-29T09:52:02.999Z,63.6
2017-09-29T09:57:03.428Z,63.7
2017-09-29T10:02:28.246Z,63.6
2017-09-29T10:07:03.712Z,63.6
2017-09-29T10:12:03.635Z,63.6
2017-09-29T10:17:14.822Z,63.6
2017-09-29T10:22:03.160Z,63.4
2017-09-29T10:27:03.629Z,63.4
2017-09-29T10:32:23.416Z,64.3
2017-09-29T10:37:03.047Z,64.3
2017-09-29T10:42:03.590Z,63.4
2017-09-29T10:47:26.788Z,63.1
2017-09-29T10:52:03.254Z,63.5
2017-09-29T10:57:03.684Z,63.5
2017-09-29T11:02:23.596Z,63.7
2017-09-29T11:07:03.570Z,63.7
2017-09-29T11:12:03.096Z,64.2
2017-09-29T11:17:28.193Z,63.9
2017-09-29T11:22:03.745Z,63.6
2017-09-29T11:27:03.249Z,63.0
2017-09-29T11:32:21.652Z,62.6
2017-09-29T11:37:03.487Z,63.2
2017-09-29T11:42:03.936Z,63.4
2017-09-29T11:47:23.659Z,63.4
2017-09-29T11:52:03.161Z,63.8
2017-09-29T11:57:03.674Z,64.8
2017-09-29T12:02:19.623Z,65.0
2017-09-29T12:07:03.571Z,65.0
2017-09-29T12:12:03.296Z,64.7
2017-09-29T12:17:25.508Z,64.4
2017-09-29T12:22:05.308Z,64.7
2017-09-29T12:27:03.144Z,65.0
2017-09-29T12:32:24.882Z,64.4
2017-09-29T12:37:03.723Z,64.3
2017-09-29T12:42:03.583Z,63.8
2017-09-29T12:47:28.405Z,63.8
2017-09-29T12:52:03.707Z,64.2
2017-09-29T12:57:03.169Z,64.2
2017-09-29T13:02:27.831Z,64.7
2017-09-29T13:07:03.105Z,64.8
2017-09-29T13:12:03.765Z,65.2
2017-09-29T13:17:28.442Z,65.4
2017-09-29T13:22:03.064Z,65.2
2017-09-29T13:27:03.579Z,65.1
2017-09-29T13:32:24.851Z,63.8
2017-09-29T13:37:03.580Z,63.8
2017-09-29T13:42:03.049Z,64.2
2017-09-29T13:47:25.561Z,64.2
2017-09-29T13:52:03.029Z,64.0
2017-09-29T13:57:03.561Z,64.1
2017-09-29T14:02:24.350Z,62.9
2017-09-29T14:07:03.785Z,62.2
2017-09-29T14:12:03.353Z,60.4
2017-09-29T14:17:25.618Z,60.4
2017-09-29T14:22:03.415Z,58.7
2017-09-29T14:27:03.870Z,57.6
2017-09-29T14:32:22.579Z,57.0
2017-09-29T14:37:03.798Z,58.1
2017-09-29T14:42:03.222Z,58.2
2017-09-29T14:47:23.837Z,61.4
2017-09-29T14:52:03.341Z,61.4
2017-09-29T14:57:03.761Z,63.2
2017-09-29T15:02:27.589Z,65.8
2017-09-29T15:07:03.242Z,65.8
2017-09-29T15:12:03.792Z,65.2
2017-09-29T15:17:21.766Z,65.1
2017-09-29T15:22:03.121Z,67.7
2017-09-29T15:27:03.624Z,67.7
2017-09-29T15:32:27.559Z,67.8
2017-09-29T15:37:03.601Z,67.7
2017-09-29T15:42:03.069Z,67.3
2017-09-29T15:47:25.568Z,66.6
2017-09-29T15:52:03.464Z,66.7
2017-09-29T15:57:03.788Z,66.9
2017-09-29T16:02:23.967Z,67.0
2017-09-29T16:07:03.338Z,67.0
2017-09-29T16:12:03.803Z,65.9
2017-09-29T16:17:28.499Z,64.2
2017-09-29T16:22:03.333Z,64.5
2017-09-29T16:27:03.771Z,64.4
2017-09-29T16:32:28.521Z,64.7
2017-09-29T16:37:03.391Z,64.8
2017-09-29T16:42:03.748Z,65.7
2017-09-29T16:47:27.778Z,67.4
2017-09-29T16:52:03.668Z,68.1
2017-09-29T16:57:03.165Z,68.1
2017-09-29T17:02:31.643Z,68.4
2017-09-29T17:07:03.311Z,68.6
2017-09-29T17:12:04.004Z,68.8
2017-09-29T17:17:27.894Z,68.9
2017-09-29T17:22:03.329Z,68.8
2017-09-29T17:27:03.701Z,69.0
2017-09-29T17:32:23.948Z,68.7
2017-09-29T17:37:03.520Z,68.6
2017-09-29T17:42:03.899Z,68.7
2017-09-29T17:47:10.523Z,68.5
2017-09-29T17:52:03.564Z,68.5
2017-09-29T17:57:03.060Z,68.4
2017-09-29T18:02:03.384Z,67.9
2017-09-29T18:07:03.812Z,67.9
2017-09-29T18:12:03.310Z,68.0
2017-09-29T18:17:03.639Z,67.8
2017-09-29T18:22:03.026Z,67.8
2017-09-29T18:27:03.479Z,67.7
2017-09-29T18:32:05.222Z,67.1
2017-09-29T18:37:03.061Z,67.1
2017-09-29T18:42:03.414Z,67.1
2017-09-29T18:47:03.742Z,67.0
2017-09-29T18:52:03.616Z,67.0
2017-09-29T18:57:03.534Z,66.9
2017-09-29T19:02:03.797Z,66.8
2017-09-29T19:07:03.317Z,66.3
2017-09-29T19:12:03.747Z,66.2
2017-09-29T19:17:03.279Z,66.3
2017-09-29T19:22:03.580Z,66.2
2017-09-29T19:27:03.872Z,66.2
2017-09-29T19:32:03.191Z,66.2
2017-09-29T19:37:03.601Z,66.3
2017-09-29T19:42:03.879Z,66.4
2017-09-29T19:47:03.302Z,66.4
2017-09-29T19:52:03.587Z,66.4
2017-09-29T19:57:03.906Z,66.4
2017-09-29T20:02:03.411Z,66.0
2017-09-29T20:07:03.676Z,66.1
2017-09-29T20:12:03.221Z,66.3
2017-09-29T20:17:03.599Z,66.3
2017-09-29T20:22:03.911Z,66.3
2017-09-29T20:27:03.272Z,66.4
2017-09-29T20:32:03.744Z,66.5
2017-09-29T20:37:03.107Z,66.4
2017-09-29T20:42:03.410Z,66.4
2017-09-29T20:47:03.917Z,66.5
2017-09-29T20:52:03.107Z,66.5
2017-09-29T20:57:03.365Z,66.5
2017-09-29T21:02:04.024Z,66.3
2017-09-29T21:07:03.287Z,66.3
2017-09-29T21:12:03.761Z,66.3
2017-09-29T21:17:03.404Z,66.2
2017-09-29T21:22:03.537Z,66.0
2017-09-29T21:27:03.848Z,66.0
2017-09-29T21:32:03.214Z,65.8
2017-09-29T21:37:03.566Z,65.6
2017-09-29T21:42:03.830Z,65.4
2017-09-29T21:47:03.235Z,65.4
2017-09-29T21:52:03.501Z,65.4
2017-09-29T21:57:03.786Z,65.4
2017-09-29T22:02:03.447Z,65.2
2017-09-29T22:07:03.755Z,65.2
2017-09-29T22:12:03.909Z,65.3
2017-09-29T22:22:03.669Z,64.7
2017-09-29T22:27:03.756Z,65.2
2017-09-29T22:32:03.233Z,65.2
2017-09-29T22:37:03.644Z,65.3
2017-09-29T22:42:03.086Z,65.3
2017-09-29T22:47:03.571Z,65.3
2017-09-29T22:52:03.151Z,65.3
2017-09-29T22:57:03.581Z,65.3
2017-09-29T23:02:03.233Z,65.4
2017-09-29T23:07:03.597Z,65.4
2017-09-29T23:12:03.522Z,65.5
2017-09-29T23:17:03.729Z,65.6
2017-09-29T23:22:03.259Z,65.6
2017-09-29T23:27:03.905Z,65.6
2017-09-29T23:32:03.656Z,65.7
2017-09-29T23:37:03.340Z,65.7
2017-09-29T23:42:03.090Z,65.8
2017-09-29T23:47:03.732Z,65.8
2017-09-29T23:52:03.674Z,65.8
2017-09-29T23:57:03.555Z,65.8
